Time;durP1;ratioP1;P1;durP2;ratioP2;P2;SDS_P1;SDS_P2;PMS_P1;PMS_P2;Temp;Humidity;BMP_temperature;BMP_pressure;BME280_temperature;BME280_humidity;BME280_pressure;Samples;Min_cycle;Max_cycle;Signal;HPM_P1;HPM_P2
2021/06/18 00:00:50;;;;;;;;;;;25.00;99.00;;;;;;2088929;28;728;-59
2021/06/18 00:02:09;;;;;;;;;;;25.00;99.10;;;;;;2094311;28;738;-60
2021/06/18 00:03:29;;;;;;;;;;;25.00;99.20;;;;;;2097279;28;712;-59
2021/06/18 00:04:48;;;;;;;;;;;25.00;99.30;;;;;;2088412;28;750;-59
2021/06/18 00:06:07;;;;;;;;;;;25.00;99.30;;;;;;2102252;28;711;-60
2021/06/18 00:07:26;;;;;;;;;;;25.00;99.30;;;;;;2097200;28;760;-60
2021/06/18 00:08:46;;;;;;;;;;;25.00;99.20;;;;;;2097497;28;1442;-59
2021/06/18 00:10:06;;;;;;;;;;;25.00;99.30;;;;;;2089019;28;743;-60
2021/06/18 00:11:25;;;;;;;;;;;25.00;99.00;;;;;;2082239;28;744;-60
2021/06/18 00:12:44;;;;;;;;;;;25.00;99.20;;;;;;2109351;28;1786;-59
2021/06/18 00:14:05;;;;;;;;;;;24.90;99.40;;;;;;2091493;28;1814;-59
2021/06/18 00:15:24;;;;;;;;;;;25.00;99.60;;;;;;2094360;28;1365;-60
2021/06/18 00:16:43;;;;;;;;;;;24.90;99.30;;;;;;2097180;28;719;-59
2021/06/18 00:18:03;;;;;;;;;;;24.90;99.40;;;;;;2097389;28;1910;-59
2021/06/18 00:19:22;;;;;;;;;;;24.90;99.40;;;;;;2090755;28;1114;-59
2021/06/18 00:20:41;;;;;;;;;;;24.90;99.90;;;;;;2098891;28;795;-59
2021/06/18 00:22:01;;;;;;;;;;;24.90;99.20;;;;;;2100558;28;753;-59
2021/06/18 00:23:20;;;;;;;;;;;24.90;99.20;;;;;;2092523;28;698;-60
2021/06/18 00:24:39;;;;;;;;;;;24.90;99.20;;;;;;2089825;28;1964;-60
2021/06/18 00:25:59;;;;;;;;;;;24.90;99.20;;;;;;2097261;28;1570;-60
2021/06/18 00:27:18;;;;;;;;;;;24.90;99.20;;;;;;2097068;28;761;-59
2021/06/18 00:28:37;;;;;;;;;;;24.90;99.30;;;;;;2088879;28;1474;-60
2021/06/18 00:29:57;;;;;;;;;;;24.90;99.60;;;;;;2090580;28;732;-60
2021/06/18 00:31:17;;;;;;;;;;;24.90;99.60;;;;;;2086044;28;718;-60
2021/06/18 00:32:35;;;;;;;;;;;24.90;99.30;;;;;;2094090;28;792;-59
2021/06/18 00:33:55;;;;;;;;;;;24.90;99.30;;;;;;2097290;28;1968;-62
2021/06/18 00:35:14;;;;;;;;;;;24.90;99.40;;;;;;2089265;28;690;-59
2021/06/18 00:36:33;;;;;;;;;;;24.90;99.30;;;;;;2088336;28;728;-60
2021/06/18 00:37:52;;;;;;;;;;;24.90;99.40;;;;;;2085348;28;720;-60
2021/06/18 00:39:11;;;;;;;;;;;24.90;99.40;;;;;;2085608;28;1433;-60
2021/06/18 00:40:31;;;;;;;;;;;24.90;99.40;;;;;;2090889;28;1541;-60
2021/06/18 00:41:50;;;;;;;;;;;24.90;99.50;;;;;;2094190;28;1259;-60
2021/06/18 00:43:09;;;;;;;;;;;24.80;99.90;;;;;;2088981;28;778;-60
2021/06/18 00:44:28;;;;;;;;;;;24.90;99.50;;;;;;2088410;28;792;-60
2021/06/18 00:45:48;;;;;;;;;;;24.80;99.30;;;;;;2080644;28;761;-59
2021/06/18 00:47:18;;;;;;;;;;;24.80;99.40;;;;;;2083806;28;743;-59
2021/06/18 00:48:37;;;;;;;;;;;24.90;99.70;;;;;;2101015;28;1380;-60
2021/06/18 00:49:56;;;;;;;;;;;24.80;99.30;;;;;;2104291;28;987;-59
2021/06/18 00:51:15;;;;;;;;;;;24.80;99.30;;;;;;2098603;28;933;-60
2021/06/18 00:52:34;;;;;;;;;;;24.80;99.40;;;;;;2099429;28;673;-59
2021/06/18 00:53:54;;;;;;;;;;;24.80;99.40;;;;;;2098733;28;1479;-59
2021/06/18 00:55:13;;;;;;;;;;;24.80;99.40;;;;;;2098712;28;1009;-59
2021/06/18 00:56:32;;;;;;;;;;;24.80;99.30;;;;;;2103732;28;718;-60
2021/06/18 00:57:51;;;;;;;;;;;24.80;99.40;;;;;;2107307;28;714;-60
2021/06/18 00:59:11;;;;;;;;;;;24.80;99.40;;;;;;2098619;28;1386;-60
2021/06/18 01:00:30;;;;;;;;;;;24.70;99.50;;;;;;2103889;28;794;-59
2021/06/18 01:01:50;;;;;;;;;;;24.80;99.40;;;;;;2106921;28;733;-59
2021/06/18 01:03:09;;;;;;;;;;;24.80;99.60;;;;;;2090364;28;808;-60
2021/06/18 01:04:28;;;;;;;;;;;24.80;99.60;;;;;;2095539;28;1692;-59
2021/06/18 01:05:48;;;;;;;;;;;24.80;99.60;;;;;;2098331;28;786;-59
2021/06/18 01:07:08;;;;;;;;;;;24.80;99.70;;;;;;2090371;28;766;-59
2021/06/18 01:08:41;;;;;;;;;;;24.80;99.70;;;;;;2094958;28;1719;-60
2021/06/18 01:10:03;;;;;;;;;;;24.80;99.70;;;;;;2090325;28;785;-60
2021/06/18 01:11:41;;;;;;;;;;;24.70;99.60;;;;;;2090927;28;761;-60
2021/06/18 01:13:00;;;;;;;;;;;24.80;99.60;;;;;;2091002;28;721;-59
2021/06/18 01:14:23;;;;;;;;;;;24.80;99.60;;;;;;2090030;28;772;-59
2021/06/18 01:16:01;;;;;;;;;;;24.80;99.60;;;;;;2090321;28;839;-59
2021/06/18 01:17:21;;;;;;;;;;;24.70;99.50;;;;;;2097866;28;728;-60
2021/06/18 01:18:41;;;;;;;;;;;24.70;99.40;;;;;;2098984;28;1971;-59
2021/06/18 01:20:03;;;;;;;;;;;24.70;99.90;;;;;;2098411;28;2123;-59
2021/06/18 01:21:38;;;;;;;;;;;24.70;99.50;;;;;;2109350;28;752;-59
2021/06/18 01:22:58;;;;;;;;;;;24.70;99.60;;;;;;2090139;28;756;-61
2021/06/18 01:24:20;;;;;;;;;;;24.70;99.60;;;;;;2081348;28;738;-59
2021/06/18 01:25:49;;;;;;;;;;;24.70;99.60;;;;;;2087621;28;696;-60
2021/06/18 01:27:15;;;;;;;;;;;24.70;99.60;;;;;;2098238;28;750;-59
2021/06/18 01:28:41;;;;;;;;;;;24.70;99.70;;;;;;2092204;28;1399;-60
2021/06/18 01:30:00;;;;;;;;;;;24.70;99.80;;;;;;2098420;28;722;-60
2021/06/18 01:31:24;;;;;;;;;;;24.70;99.90;;;;;;2094208;28;1964;-60
2021/06/18 01:32:46;;;;;;;;;;;24.70;99.90;;;;;;2098371;28;1429;-60
2021/06/18 01:34:31;;;;;;;;;;;24.70;99.90;;;;;;2097977;28;752;-60
2021/06/18 01:35:54;;;;;;;;;;;24.70;99.90;;;;;;2097810;28;1658;-60
2021/06/18 01:37:14;;;;;;;;;;;24.70;99.90;;;;;;2095389;28;731;-59
2021/06/18 01:38:34;;;;;;;;;;;24.70;99.80;;;;;;2089885;28;1902;-60
2021/06/18 01:39:53;;;;;;;;;;;24.70;99.70;;;;;;2095096;28;715;-59
2021/06/18 01:41:15;;;;;;;;;;;24.70;99.60;;;;;;2095279;28;714;-59
2021/06/18 01:42:34;;;;;;;;;;;24.70;99.60;;;;;;2087245;28;1023;-59
2021/06/18 01:43:54;;;;;;;;;;;24.70;99.70;;;;;;2075300;28;767;-59
2021/06/18 01:45:14;;;;;;;;;;;24.70;99.70;;;;;;2088856;28;780;-60
2021/06/18 01:46:34;;;;;;;;;;;24.70;99.90;;;;;;2086368;28;1216;-60
2021/06/18 01:47:54;;;;;;;;;;;24.70;99.70;;;;;;2096676;28;1924;-59
2021/06/18 01:49:13;;;;;;;;;;;24.70;99.80;;;;;;2098067;28;1453;-60
2021/06/18 01:50:33;;;;;;;;;;;24.70;99.80;;;;;;2095549;28;2114;-59
2021/06/18 01:51:52;;;;;;;;;;;24.60;99.80;;;;;;2089791;28;1040;-59
2021/06/18 01:53:14;;;;;;;;;;;24.60;99.90;;;;;;2091871;28;740;-59
2021/06/18 01:54:34;;;;;;;;;;;24.60;99.90;;;;;;2094710;28;1028;-59
2021/06/18 01:55:53;;;;;;;;;;;24.70;99.90;;;;;;2086664;28;815;-59
2021/06/18 01:57:12;;;;;;;;;;;24.60;99.90;;;;;;2091338;28;732;-59
2021/06/18 01:58:31;;;;;;;;;;;24.60;99.90;;;;;;2094752;28;1984;-59
2021/06/18 01:59:51;;;;;;;;;;;24.60;99.90;;;;;;2088908;28;789;-59
2021/06/18 02:01:11;;;;;;;;;;;24.60;99.90;;;;;;2084604;28;952;-59
2021/06/18 02:02:30;;;;;;;;;;;24.60;99.90;;;;;;2102874;28;1459;-60
2021/06/18 02:03:49;;;;;;;;;;;24.60;99.80;;;;;;2091424;28;913;-59
2021/06/18 02:05:08;;;;;;;;;;;24.60;99.80;;;;;;2081443;28;734;-59
2021/06/18 02:06:28;;;;;;;;;;;24.60;99.80;;;;;;2086588;28;957;-59
2021/06/18 02:07:47;;;;;;;;;;;24.60;99.80;;;;;;2089665;28;1045;-59
2021/06/18 02:09:07;;;;;;;;;;;24.60;99.80;;;;;;2086473;28;1344;-59
2021/06/18 02:10:26;;;;;;;;;;;24.60;99.80;;;;;;2103276;28;724;-59
2021/06/18 02:11:45;;;;;;;;;;;24.60;99.80;;;;;;2084788;28;797;-59
2021/06/18 02:13:04;;;;;;;;;;;24.60;99.80;;;;;;2078237;28;981;-59
2021/06/18 02:14:24;;;;;;;;;;;24.60;99.90;;;;;;2089494;28;1634;-59
2021/06/18 02:15:44;;;;;;;;;;;24.60;99.90;;;;;;2094255;28;2005;-59
2021/06/18 02:17:03;;;;;;;;;;;24.60;99.90;;;;;;2094281;28;741;-59
2021/06/18 02:18:25;;;;;;;;;;;24.60;99.90;;;;;;2098750;28;1906;-59
2021/06/18 02:19:46;;;;;;;;;;;24.60;99.90;;;;;;2096124;28;959;-59
2021/06/18 02:21:05;;;;;;;;;;;24.60;99.90;;;;;;2106031;28;711;-60
2021/06/18 02:22:24;;;;;;;;;;;24.50;99.90;;;;;;2097829;28;758;-60
2021/06/18 02:23:43;;;;;;;;;;;24.50;99.90;;;;;;2104900;28;1268;-60
2021/06/18 02:25:03;;;;;;;;;;;24.60;99.90;;;;;;2112086;27;1492;-59
2021/06/18 02:26:24;;;;;;;;;;;24.50;99.90;;;;;;2102033;28;1255;-59
2021/06/18 02:27:44;;;;;;;;;;;24.50;99.90;;;;;;2104541;28;1353;-59
2021/06/18 02:29:03;;;;;;;;;;;24.50;99.90;;;;;;2096620;28;1369;-59
2021/06/18 02:30:22;;;;;;;;;;;24.50;99.90;;;;;;2113283;27;943;-59
2021/06/18 02:31:43;;;;;;;;;;;24.50;99.90;;;;;;2090699;28;1152;-59
2021/06/18 02:33:02;;;;;;;;;;;24.50;99.90;;;;;;2090293;28;1312;-59
2021/06/18 02:34:21;;;;;;;;;;;24.50;99.90;;;;;;2095858;28;1741;-60
2021/06/18 02:35:41;;;;;;;;;;;24.50;99.90;;;;;;2095437;28;1575;-59
2021/06/18 02:37:01;;;;;;;;;;;24.50;99.90;;;;;;2090992;28;1377;-59
2021/06/18 02:38:21;;;;;;;;;;;24.50;99.90;;;;;;2090882;28;1972;-60
2021/06/18 02:39:42;;;;;;;;;;;24.50;99.90;;;;;;2094551;28;1333;-59
2021/06/18 02:41:01;;;;;;;;;;;24.50;99.90;;;;;;2109512;27;1481;-59
2021/06/18 02:42:21;;;;;;;;;;;24.50;99.90;;;;;;2086685;28;1277;-60
2021/06/18 02:43:40;;;;;;;;;;;24.50;99.90;;;;;;2082336;28;1324;-59
2021/06/18 02:44:59;;;;;;;;;;;24.50;99.90;;;;;;2100205;27;2035;-60
2021/06/18 02:46:22;;;;;;;;;;;24.50;99.90;;;;;;2097975;28;1303;-59
2021/06/18 02:47:43;;;;;;;;;;;24.50;99.90;;;;;;2083496;28;1329;-59
2021/06/18 02:49:02;;;;;;;;;;;24.50;99.90;;;;;;2083081;28;1392;-59
2021/06/18 02:50:28;;;;;;;;;;;24.50;99.90;;;;;;2092648;28;1139;-59
2021/06/18 02:51:51;;;;;;;;;;;24.50;99.90;;;;;;2095389;28;1215;-59
2021/06/18 02:53:28;;;;;;;;;;;24.50;99.90;;;;;;2111206;27;1397;-59
2021/06/18 02:54:50;;;;;;;;;;;24.50;99.90;;;;;;2096910;28;1338;-60
2021/06/18 02:56:21;;;;;;;;;;;24.50;99.90;;;;;;2094417;28;1227;-59
2021/06/18 02:57:45;;;;;;;;;;;24.50;99.90;;;;;;2106244;28;1297;-59
2021/06/18 02:59:04;;;;;;;;;;;24.50;99.90;;;;;;2108870;28;1485;-60
2021/06/18 03:00:24;;;;;;;;;;;24.50;99.90;;;;;;2096270;28;1339;-60
2021/06/18 03:01:43;;;;;;;;;;;24.50;99.90;;;;;;2105443;28;1386;-60
2021/06/18 03:03:02;;;;;;;;;;;24.40;99.90;;;;;;2088221;28;1310;-60
2021/06/18 03:04:22;;;;;;;;;;;24.50;99.90;;;;;;2087715;28;1447;-60
2021/06/18 03:05:41;;;;;;;;;;;24.40;99.90;;;;;;2097755;28;1310;-60
2021/06/18 03:07:03;;;;;;;;;;;24.40;99.90;;;;;;2095431;28;1637;-60
2021/06/18 03:08:23;;;;;;;;;;;24.40;99.90;;;;;;2096865;28;1516;-60
2021/06/18 03:09:52;;;;;;;;;;;24.40;99.90;;;;;;2094098;28;1240;-60
2021/06/18 03:11:12;;;;;;;;;;;24.40;99.90;;;;;;2107493;27;1095;-60
2021/06/18 03:12:31;;;;;;;;;;;24.50;99.90;;;;;;2095456;28;1171;-60
2021/06/18 03:13:50;;;;;;;;;;;24.40;99.90;;;;;;2104236;28;1297;-60
2021/06/18 03:15:10;;;;;;;;;;;24.40;99.90;;;;;;2096291;28;1745;-60
2021/06/18 03:16:29;;;;;;;;;;;24.40;99.90;;;;;;2088485;28;1233;-60
2021/06/18 03:17:48;;;;;;;;;;;24.40;99.90;;;;;;2094370;28;1277;-60
2021/06/18 03:19:08;;;;;;;;;;;24.40;99.90;;;;;;2093932;28;1436;-60
2021/06/18 03:20:27;;;;;;;;;;;24.40;99.90;;;;;;2085648;28;1288;-60
2021/06/18 03:21:46;;;;;;;;;;;24.40;99.90;;;;;;2085698;28;1313;-60
2021/06/18 03:23:06;;;;;;;;;;;24.40;99.90;;;;;;2100704;27;1578;-59
2021/06/18 03:24:26;;;;;;;;;;;24.40;99.90;;;;;;2089744;28;1563;-60
2021/06/18 03:25:45;;;;;;;;;;;24.40;99.90;;;;;;2094755;28;1138;-59
2021/06/18 03:27:05;;;;;;;;;;;24.40;99.90;;;;;;2084445;28;1314;-59
2021/06/18 03:28:25;;;;;;;;;;;24.40;99.90;;;;;;2085702;28;1533;-60
2021/06/18 03:29:44;;;;;;;;;;;24.40;99.90;;;;;;2084551;28;1496;-60
2021/06/18 03:31:07;;;;;;;;;;;24.40;99.90;;;;;;2094125;28;1375;-61
2021/06/18 03:32:27;;;;;;;;;;;24.40;99.90;;;;;;2085190;28;1118;-60
2021/06/18 03:33:46;;;;;;;;;;;24.40;99.90;;;;;;2101103;28;1234;-59
2021/06/18 03:35:05;;;;;;;;;;;24.40;99.90;;;;;;2083569;28;1664;-61
2021/06/18 03:36:25;;;;;;;;;;;24.40;99.90;;;;;;2092982;28;1456;-59
2021/06/18 03:37:44;;;;;;;;;;;24.40;99.90;;;;;;2097192;28;1269;-59
2021/06/18 03:39:03;;;;;;;;;;;24.40;99.90;;;;;;2106517;28;1937;-59
2021/06/18 03:40:23;;;;;;;;;;;24.40;99.90;;;;;;2113492;27;1076;-60
2021/06/18 03:41:42;;;;;;;;;;;24.30;99.90;;;;;;2088463;28;1133;-59
2021/06/18 03:43:01;;;;;;;;;;;24.40;99.90;;;;;;2085887;28;1464;-60
2021/06/18 03:44:20;;;;;;;;;;;24.30;99.90;;;;;;2103768;28;1673;-60
2021/06/18 03:45:42;;;;;;;;;;;24.30;99.90;;;;;;2096481;28;1267;-59
2021/06/18 03:47:01;;;;;;;;;;;24.20;99.90;;;;;;2097837;28;1281;-60
2021/06/18 03:48:21;;;;;;;;;;;24.10;99.90;;;;;;2083092;28;1915;-59
2021/06/18 03:49:41;;;;;;;;;;;24.10;99.90;;;;;;2082325;28;1459;-59
2021/06/18 03:51:01;;;;;;;;;;;24.00;99.90;;;;;;2089532;28;1307;-62
2021/06/18 03:52:21;;;;;;;;;;;23.90;99.90;;;;;;2094601;28;1262;-59
2021/06/18 03:53:40;;;;;;;;;;;23.90;99.90;;;;;;2091382;28;1175;-59
2021/06/18 03:55:00;;;;;;;;;;;23.90;99.90;;;;;;2103448;28;1117;-60
2021/06/18 03:56:19;;;;;;;;;;;24.00;99.90;;;;;;2098106;28;1104;-60
2021/06/18 03:57:39;;;;;;;;;;;24.00;99.90;;;;;;2089085;28;1082;-60
2021/06/18 03:58:58;;;;;;;;;;;24.10;99.90;;;;;;2085122;28;1977;-60
2021/06/18 04:00:18;;;;;;;;;;;24.10;99.90;;;;;;2090734;28;1210;-60
2021/06/18 04:01:37;;;;;;;;;;;24.10;99.90;;;;;;2094357;28;1323;-59
2021/06/18 04:02:56;;;;;;;;;;;24.10;99.90;;;;;;2091557;28;1251;-60
2021/06/18 04:04:16;;;;;;;;;;;24.20;99.90;;;;;;2082342;28;1213;-59
2021/06/18 04:05:35;;;;;;;;;;;24.20;99.90;;;;;;2094813;28;1289;-60
2021/06/18 04:06:54;;;;;;;;;;;24.20;99.90;;;;;;2095519;28;1428;-60
2021/06/18 04:08:14;;;;;;;;;;;24.20;99.90;;;;;;2089034;28;1066;-59
2021/06/18 04:09:35;;;;;;;;;;;24.20;99.90;;;;;;2102062;28;1201;-60
2021/06/18 04:10:54;;;;;;;;;;;24.20;99.90;;;;;;2096817;28;1157;-60
2021/06/18 04:12:13;;;;;;;;;;;24.20;99.90;;;;;;2097773;28;1199;-59
2021/06/18 04:13:33;;;;;;;;;;;24.30;99.90;;;;;;2084704;28;1168;-60
2021/06/18 04:14:52;;;;;;;;;;;24.30;99.90;;;;;;2104656;28;1207;-60
2021/06/18 04:16:12;;;;;;;;;;;24.30;99.90;;;;;;2097362;28;1111;-59
2021/06/18 04:17:31;;;;;;;;;;;24.20;99.90;;;;;;2096454;28;1227;-60
2021/06/18 04:18:50;;;;;;;;;;;24.30;99.90;;;;;;2094215;28;1906;-60
2021/06/18 04:20:10;;;;;;;;;;;24.30;99.90;;;;;;2094770;28;1137;-59
2021/06/18 04:21:29;;;;;;;;;;;24.30;99.90;;;;;;2106536;28;1368;-60
2021/06/18 04:22:49;;;;;;;;;;;24.20;99.90;;;;;;2099333;28;1368;-59
2021/06/18 04:24:09;;;;;;;;;;;24.20;99.90;;;;;;2089625;28;1320;-60
2021/06/18 04:25:28;;;;;;;;;;;24.20;99.90;;;;;;2094140;28;1176;-60
2021/06/18 04:26:47;;;;;;;;;;;24.30;99.90;;;;;;2095605;28;1236;-59
2021/06/18 04:28:07;;;;;;;;;;;24.30;99.90;;;;;;2094725;28;1197;-59
2021/06/18 04:29:26;;;;;;;;;;;24.30;99.90;;;;;;2098749;28;1072;-59
2021/06/18 04:30:45;;;;;;;;;;;24.20;99.90;;;;;;2099516;28;1107;-62
2021/06/18 04:32:05;;;;;;;;;;;24.30;99.90;;;;;;2098338;28;1308;-60
2021/06/18 04:33:24;;;;;;;;;;;24.30;99.90;;;;;;2099131;28;1137;-59
2021/06/18 04:34:43;;;;;;;;;;;24.30;99.90;;;;;;2097593;28;1782;-60
2021/06/18 04:36:02;;;;;;;;;;;24.30;99.90;;;;;;2093645;28;1374;-59
2021/06/18 04:37:21;;;;;;;;;;;24.30;99.90;;;;;;2095811;28;1351;-60
2021/06/18 04:38:40;;;;;;;;;;;24.30;99.90;;;;;;2105792;27;1973;-59
2021/06/18 04:40:00;;;;;;;;;;;24.30;99.90;;;;;;2104651;27;1352;-60
2021/06/18 04:41:19;;;;;;;;;;;24.30;99.90;;;;;;2099180;28;858;-59
2021/06/18 04:42:38;;;;;;;;;;;24.30;99.90;;;;;;2098638;28;1130;-60
2021/06/18 04:43:58;;;;;;;;;;;24.20;99.90;;;;;;2098713;28;1101;-60
2021/06/18 04:45:18;;;;;;;;;;;24.30;99.90;;;;;;2100539;28;1138;-60
2021/06/18 04:46:37;;;;;;;;;;;24.20;99.90;;;;;;2098609;28;1449;-59
2021/06/18 04:47:57;;;;;;;;;;;24.30;99.90;;;;;;2096857;28;1367;-59
2021/06/18 04:49:16;;;;;;;;;;;24.20;99.90;;;;;;2100033;28;1413;-59
2021/06/18 04:50:36;;;;;;;;;;;24.20;99.90;;;;;;2100606;28;1357;-60
2021/06/18 04:51:55;;;;;;;;;;;24.20;99.90;;;;;;2114338;27;1333;-60
2021/06/18 04:53:14;;;;;;;;;;;24.30;99.90;;;;;;2099985;28;1412;-59
2021/06/18 04:54:33;;;;;;;;;;;24.30;99.90;;;;;;2108692;28;1190;-59
2021/06/18 04:55:53;;;;;;;;;;;24.30;99.90;;;;;;2099384;28;1055;-60
2021/06/18 04:57:13;;;;;;;;;;;24.30;99.90;;;;;;2095464;28;1446;-60
2021/06/18 04:58:32;;;;;;;;;;;24.30;99.90;;;;;;2097760;28;2115;-60
2021/06/18 04:59:51;;;;;;;;;;;24.30;99.90;;;;;;2111255;27;1536;-60
2021/06/18 05:01:11;;;;;;;;;;;24.20;99.90;;;;;;2100460;28;1169;-60
2021/06/18 05:02:30;;;;;;;;;;;24.30;99.90;;;;;;2108739;28;905;-61
2021/06/18 05:03:49;;;;;;;;;;;24.30;99.90;;;;;;2102124;28;1222;-60
2021/06/18 05:05:09;;;;;;;;;;;24.30;99.90;;;;;;2098081;28;1438;-60
2021/06/18 05:06:28;;;;;;;;;;;24.20;99.90;;;;;;2087262;28;1150;-60
2021/06/18 05:07:53;;;;;;;;;;;24.30;99.90;;;;;;2096595;28;1377;-61
2021/06/18 05:09:13;;;;;;;;;;;24.30;99.90;;;;;;2102358;28;1384;-61
2021/06/18 05:10:32;;;;;;;;;;;24.20;99.90;;;;;;2101962;28;1283;-61
2021/06/18 05:11:51;;;;;;;;;;;24.20;99.90;;;;;;2097274;28;1150;-60
2021/06/18 05:13:11;;;;;;;;;;;24.20;99.90;;;;;;2094952;28;1341;-60
2021/06/18 05:14:30;;;;;;;;;;;24.20;99.90;;;;;;2087969;28;1620;-61
2021/06/18 05:15:49;;;;;;;;;;;24.20;99.90;;;;;;2097567;28;1259;-60
2021/06/18 05:17:08;;;;;;;;;;;24.20;99.90;;;;;;2089632;28;1132;-60
2021/06/18 05:18:28;;;;;;;;;;;24.20;99.90;;;;;;2096550;28;1910;-61
2021/06/18 05:19:47;;;;;;;;;;;24.20;99.90;;;;;;2099567;28;1444;-60
2021/06/18 05:21:06;;;;;;;;;;;24.30;99.90;;;;;;2098076;28;1221;-60
2021/06/18 05:22:25;;;;;;;;;;;24.30;99.90;;;;;;2094400;28;1149;-60
2021/06/18 05:23:44;;;;;;;;;;;24.30;99.90;;;;;;2093565;28;1152;-60
2021/06/18 05:25:04;;;;;;;;;;;24.30;99.90;;;;;;2100544;28;1262;-60
2021/06/18 05:26:23;;;;;;;;;;;24.30;99.90;;;;;;2111213;27;1268;-60
2021/06/18 05:27:43;;;;;;;;;;;24.30;99.90;;;;;;2096294;28;1421;-60
2021/06/18 05:29:02;;;;;;;;;;;24.30;99.90;;;;;;2091337;28;1509;-60
2021/06/18 05:30:21;;;;;;;;;;;24.30;99.90;;;;;;2093388;28;1349;-60
2021/06/18 05:31:40;;;;;;;;;;;24.30;99.90;;;;;;2102736;28;1241;-60
2021/06/18 05:33:00;;;;;;;;;;;24.30;99.90;;;;;;2108564;28;1418;-60
2021/06/18 05:34:19;;;;;;;;;;;24.30;99.90;;;;;;2089500;28;1052;-60
2021/06/18 05:35:41;;;;;;;;;;;24.30;99.90;;;;;;2084007;28;1315;-60
2021/06/18 05:37:01;;;;;;;;;;;24.30;99.90;;;;;;2098398;28;1252;-60
2021/06/18 05:38:20;;;;;;;;;;;24.30;99.90;;;;;;2099375;28;1955;-60
2021/06/18 05:39:41;;;;;;;;;;;24.30;99.90;;;;;;2106993;27;1265;-60
2021/06/18 05:41:00;;;;;;;;;;;24.40;99.90;;;;;;2101324;28;1265;-60
2021/06/18 05:42:19;;;;;;;;;;;24.40;99.90;;;;;;2089242;28;1289;-60
2021/06/18 05:43:38;;;;;;;;;;;24.40;99.90;;;;;;2095128;28;1113;-59
2021/06/18 05:44:57;;;;;;;;;;;24.40;99.90;;;;;;2096789;28;1231;-60
2021/06/18 05:46:17;;;;;;;;;;;24.40;99.90;;;;;;2088900;28;1297;-60
2021/06/18 05:47:36;;;;;;;;;;;24.40;99.90;;;;;;2099878;28;1345;-60
2021/06/18 05:48:56;;;;;;;;;;;24.40;99.90;;;;;;2099422;28;1446;-60
2021/06/18 05:50:15;;;;;;;;;;;24.40;99.90;;;;;;2098747;28;1470;-59
2021/06/18 05:51:34;;;;;;;;;;;24.40;99.90;;;;;;2109401;27;1107;-60
2021/06/18 05:52:53;;;;;;;;;;;24.50;99.90;;;;;;2093382;28;1395;-60
2021/06/18 05:54:14;;;;;;;;;;;24.40;99.90;;;;;;2093172;28;1229;-60
2021/06/18 05:55:33;;;;;;;;;;;24.50;99.90;;;;;;2092637;28;1342;-60
2021/06/18 05:56:53;;;;;;;;;;;24.50;99.90;;;;;;2092233;28;1316;-59
2021/06/18 05:58:12;;;;;;;;;;;24.50;99.90;;;;;;2095108;28;1995;-59
2021/06/18 05:59:31;;;;;;;;;;;24.50;99.90;;;;;;2092418;28;1298;-60
2021/06/18 06:00:51;;;;;;;;;;;24.50;99.90;;;;;;2097387;28;1323;-59
2021/06/18 06:02:10;;;;;;;;;;;24.50;99.90;;;;;;2098885;28;1710;-60
2021/06/18 06:03:29;;;;;;;;;;;24.50;99.90;;;;;;2097857;28;1269;-60
2021/06/18 06:04:48;;;;;;;;;;;24.50;99.90;;;;;;2096086;28;1208;-60
2021/06/18 06:06:11;;;;;;;;;;;24.50;99.90;;;;;;2097365;28;1433;-60
2021/06/18 06:07:30;;;;;;;;;;;24.50;99.90;;;;;;2090891;28;1610;-60
2021/06/18 06:08:53;;;;;;;;;;;24.50;99.90;;;;;;2093988;28;1487;-59
2021/06/18 06:10:13;;;;;;;;;;;24.50;99.90;;;;;;2096708;28;1174;-59
2021/06/18 06:11:34;;;;;;;;;;;24.50;99.90;;;;;;2094991;28;1613;-60
2021/06/18 06:12:53;;;;;;;;;;;24.50;99.90;;;;;;2108904;27;1387;-60
2021/06/18 06:14:17;;;;;;;;;;;24.50;99.90;;;;;;2097394;28;1359;-59
2021/06/18 06:15:36;;;;;;;;;;;24.50;99.90;;;;;;2097867;28;1388;-59
2021/06/18 06:16:55;;;;;;;;;;;24.50;99.90;;;;;;2091483;28;1272;-60
2021/06/18 06:18:14;;;;;;;;;;;24.50;99.90;;;;;;2092306;28;1969;-60
2021/06/18 06:19:34;;;;;;;;;;;24.50;99.90;;;;;;2088747;28;1125;-60
2021/06/18 06:20:53;;;;;;;;;;;24.50;99.90;;;;;;2088744;28;1352;-60
2021/06/18 06:22:12;;;;;;;;;;;24.50;99.90;;;;;;2080409;28;1389;-60
2021/06/18 06:23:32;;;;;;;;;;;24.50;99.90;;;;;;2094976;28;1007;-60
2021/06/18 06:24:51;;;;;;;;;;;24.60;99.90;;;;;;2084585;28;1330;-60
2021/06/18 06:26:10;;;;;;;;;;;24.50;99.90;;;;;;2088985;28;1445;-59
2021/06/18 06:27:30;;;;;;;;;;;24.50;99.90;;;;;;2106388;28;1282;-60
2021/06/18 06:28:49;;;;;;;;;;;24.60;99.90;;;;;;2095045;28;1543;-60
2021/06/18 06:30:08;;;;;;;;;;;24.60;99.90;;;;;;2090494;28;1215;-59
2021/06/18 06:31:27;;;;;;;;;;;24.50;99.90;;;;;;2087752;28;1377;-60
2021/06/18 06:32:47;;;;;;;;;;;24.60;99.90;;;;;;2084926;28;1274;-60
2021/06/18 06:34:06;;;;;;;;;;;24.60;99.90;;;;;;2090687;28;1624;-59
2021/06/18 06:35:25;;;;;;;;;;;24.50;99.90;;;;;;2092524;28;1079;-59
2021/06/18 06:36:45;;;;;;;;;;;24.60;99.90;;;;;;2083028;28;1396;-60
2021/06/18 06:38:04;;;;;;;;;;;24.60;99.90;;;;;;2094433;28;1415;-60
2021/06/18 06:39:23;;;;;;;;;;;24.60;99.90;;;;;;2097091;28;1543;-60
2021/06/18 06:40:43;;;;;;;;;;;24.60;99.90;;;;;;2101002;28;1474;-60
2021/06/18 06:42:04;;;;;;;;;;;24.60;99.90;;;;;;2083583;28;1032;-59
2021/06/18 06:43:23;;;;;;;;;;;24.60;99.90;;;;;;2088160;28;1033;-60
2021/06/18 06:44:42;;;;;;;;;;;24.60;99.90;;;;;;2088516;28;1493;-60
2021/06/18 06:46:02;;;;;;;;;;;24.60;99.90;;;;;;2093467;28;1478;-61
2021/06/18 06:47:21;;;;;;;;;;;24.60;99.90;;;;;;2098484;28;1493;-59
2021/06/18 06:48:40;;;;;;;;;;;24.60;99.90;;;;;;2097400;28;1649;-59
2021/06/18 06:50:00;;;;;;;;;;;24.60;99.90;;;;;;2093029;28;1220;-62
2021/06/18 06:51:19;;;;;;;;;;;24.70;99.90;;;;;;2102043;28;1854;-60
2021/06/18 06:52:39;;;;;;;;;;;24.60;99.90;;;;;;2103978;28;1218;-60
2021/06/18 06:53:58;;;;;;;;;;;24.60;99.90;;;;;;2100422;28;1790;-60
2021/06/18 06:55:17;;;;;;;;;;;24.70;99.90;;;;;;2095161;28;1517;-60
2021/06/18 06:56:36;;;;;;;;;;;24.70;99.90;;;;;;2109498;28;974;-61
2021/06/18 06:57:56;;;;;;;;;;;24.70;99.90;;;;;;2098562;28;1251;-60
2021/06/18 06:59:15;;;;;;;;;;;24.70;99.90;;;;;;2099013;28;1416;-60
2021/06/18 07:00:34;;;;;;;;;;;24.70;99.90;;;;;;2099660;28;1393;-61
2021/06/18 07:01:53;;;;;;;;;;;24.70;99.90;;;;;;2100003;28;1309;-61
2021/06/18 07:03:12;;;;;;;;;;;24.70;99.90;;;;;;2097634;28;1345;-61
2021/06/18 07:04:32;;;;;;;;;;;24.70;99.90;;;;;;2111335;28;1040;-61
2021/06/18 07:05:51;;;;;;;;;;;24.70;99.90;;;;;;2098264;28;1215;-61
2021/06/18 07:07:10;;;;;;;;;;;24.70;99.90;;;;;;2088574;28;995;-61
2021/06/18 07:08:29;;;;;;;;;;;24.70;99.90;;;;;;2101146;28;1512;-61
2021/06/18 07:09:49;;;;;;;;;;;24.70;99.90;;;;;;2101669;28;1269;-61
2021/06/18 07:11:08;;;;;;;;;;;24.70;99.90;;;;;;2097238;28;1096;-61
2021/06/18 07:12:27;;;;;;;;;;;24.70;99.90;;;;;;2105724;28;1478;-61
2021/06/18 07:13:46;;;;;;;;;;;24.70;99.90;;;;;;2094091;28;1395;-61
2021/06/18 07:15:06;;;;;;;;;;;24.70;99.90;;;;;;2093243;28;1264;-61
2021/06/18 07:16:25;;;;;;;;;;;24.70;99.90;;;;;;2106034;28;1102;-60
2021/06/18 07:17:45;;;;;;;;;;;24.70;99.90;;;;;;2106422;28;1207;-60
2021/06/18 07:19:04;;;;;;;;;;;24.70;99.90;;;;;;2099175;28;1968;-60
2021/06/18 07:20:23;;;;;;;;;;;24.70;99.90;;;;;;2096053;28;1497;-60
2021/06/18 07:21:43;;;;;;;;;;;24.70;99.90;;;;;;2097567;28;1383;-60
2021/06/18 07:23:02;;;;;;;;;;;24.70;99.90;;;;;;2095822;28;1340;-60
2021/06/18 07:24:21;;;;;;;;;;;24.70;99.90;;;;;;2098394;28;1731;-60
2021/06/18 07:25:42;;;;;;;;;;;24.70;99.90;;;;;;2110225;27;1236;-60
2021/06/18 07:27:01;;;;;;;;;;;24.70;99.90;;;;;;2099133;28;1238;-60
2021/06/18 07:28:20;;;;;;;;;;;24.70;99.90;;;;;;2097551;28;1375;-60
2021/06/18 07:29:40;;;;;;;;;;;24.70;99.90;;;;;;2098987;28;1119;-60
2021/06/18 07:30:59;;;;;;;;;;;24.70;99.90;;;;;;2099328;28;1185;-60
2021/06/18 07:32:18;;;;;;;;;;;24.70;99.90;;;;;;2095632;28;1200;-60
2021/06/18 07:33:38;;;;;;;;;;;24.70;99.90;;;;;;2097903;28;1431;-60
2021/06/18 07:34:57;;;;;;;;;;;24.70;99.90;;;;;;2097688;28;923;-60
2021/06/18 07:36:16;;;;;;;;;;;24.70;99.90;;;;;;2097841;28;1140;-61
2021/06/18 07:37:35;;;;;;;;;;;24.70;99.90;;;;;;2088722;28;1097;-60
2021/06/18 07:38:54;;;;;;;;;;;24.70;99.90;;;;;;2093710;28;1906;-60
2021/06/18 07:40:14;;;;;;;;;;;24.70;99.90;;;;;;2094128;28;1131;-60
2021/06/18 07:41:35;;;;;;;;;;;24.70;99.90;;;;;;2106059;28;1054;-60
2021/06/18 07:42:54;;;;;;;;;;;24.70;99.90;;;;;;2110849;28;892;-60
2021/06/18 07:44:13;;;;;;;;;;;24.70;99.90;;;;;;2080606;28;1797;-60
2021/06/18 07:45:32;;;;;;;;;;;24.70;99.90;;;;;;2088228;28;1237;-60
2021/06/18 07:46:52;;;;;;;;;;;24.70;99.90;;;;;;2093974;28;896;-60
2021/06/18 07:48:11;;;;;;;;;;;24.70;99.90;;;;;;2100274;28;1302;-60
2021/06/18 07:49:30;;;;;;;;;;;24.70;99.90;;;;;;2099330;28;1431;-61
2021/06/18 07:50:49;;;;;;;;;;;24.70;99.90;;;;;;2097137;28;1714;-60
2021/06/18 07:52:08;;;;;;;;;;;24.70;99.90;;;;;;2097449;28;1143;-60
2021/06/18 07:53:28;;;;;;;;;;;24.70;99.90;;;;;;2097276;28;1653;-60
2021/06/18 07:54:51;;;;;;;;;;;24.70;99.90;;;;;;2099762;28;1135;-60